Time;durP1;ratioP1;P1;durP2;ratioP2;P2;SDS_P1;SDS_P2;PMS_P1;PMS_P2;Temp;Humidity;BMP_temperature;BMP_pressure;BME280_temperature;BME280_humidity;BME280_pressure;Samples;Min_cycle;Max_cycle;Signal;HPM_P1;HPM_P2
2021/06/08 00:00:21;;;;;;;21.63;15.93;;;16.30;99.90;;;;;;5029846;28;20067;-72
2021/06/08 00:02:48;;;;;;;22.77;16.42;;;16.30;99.90;;;;;;5031877;28;20013;-75
2021/06/08 00:05:14;;;;;;;25.23;16.50;;;16.30;99.90;;;;;;5029105;28;20014;-75
2021/06/08 00:07:52;;;;;;;26.15;16.30;;;16.20;99.90;;;;;;5027976;28;20631;-72
2021/06/08 00:10:18;;;;;;;23.55;15.38;;;16.20;99.90;;;;;;5040269;28;20002;-75
2021/06/08 00:12:48;;;;;;;22.85;15.98;;;16.10;99.90;;;;;;5049843;28;20017;-75
2021/06/08 00:15:14;;;;;;;24.45;15.55;;;16.00;99.90;;;;;;5039034;28;20005;-76
2021/06/08 00:17:40;;;;;;;24.63;16.73;;;16.20;99.90;;;;;;5025805;28;20411;-73
2021/06/08 00:20:07;;;;;;;22.23;16.23;;;16.30;99.90;;;;;;5030818;28;20048;-74
2021/06/08 00:22:33;;;;;;;27.15;18.50;;;16.20;99.90;;;;;;5013280;28;20021;-75
2021/06/08 00:24:58;;;;;;;23.90;17.50;;;16.10;99.90;;;;;;5025042;28;20541;-72
2021/06/08 00:27:24;;;;;;;25.77;18.67;;;16.10;99.90;;;;;;5024883;28;20491;-74
2021/06/08 00:29:50;;;;;;;26.50;18.55;;;16.10;99.90;;;;;;5024679;28;20414;-75
2021/06/08 00:32:15;;;;;;;30.08;17.65;;;16.10;99.90;;;;;;5024909;28;20036;-76
2021/06/08 00:34:41;;;;;;;30.75;17.85;;;16.10;99.90;;;;;;5024849;28;20055;-75
2021/06/08 00:37:07;;;;;;;24.52;17.17;;;16.00;99.90;;;;;;5030409;28;20530;-74
2021/06/08 00:39:32;;;;;;;26.98;17.52;;;16.10;99.90;;;;;;5031549;28;20022;-74
2021/06/08 00:41:58;;;;;;;27.85;17.90;;;16.20;99.90;;;;;;5025956;28;20045;-75
2021/06/08 00:44:24;;;;;;;26.50;17.88;;;16.30;99.90;;;;;;5024688;28;20037;-73
2021/06/08 00:46:50;;;;;;;21.50;16.50;;;16.20;99.90;;;;;;5030832;28;20340;-75
2021/06/08 00:49:16;;;;;;;26.83;18.42;;;16.30;99.90;;;;;;5030416;28;20523;-75
2021/06/08 00:51:42;;;;;;;23.52;17.42;;;16.30;99.90;;;;;;5029964;28;20076;-74
2021/06/08 00:54:11;;;;;;;26.50;16.80;;;16.20;99.90;;;;;;5016381;28;20037;-75
2021/06/08 00:56:40;;;;;;;23.80;17.92;;;16.20;99.90;;;;;;5027784;28;20061;-75
2021/06/08 00:59:07;;;;;;;24.60;17.65;;;16.20;99.90;;;;;;5029880;28;20495;-74
2021/06/08 01:01:33;;;;;;;25.63;18.30;;;16.20;99.90;;;;;;5022885;28;20094;-75
2021/06/08 01:04:06;;;;;;;24.92;16.38;;;16.20;99.90;;;;;;5023250;28;20044;-72
2021/06/08 01:06:35;;;;;;;;;;;16.10;99.90;;;;;;5027835;28;20025;-74
2021/06/08 01:09:16;;;;;;;23.63;17.17;;;16.10;99.90;;;;;;5028261;28;20290;-72
2021/06/08 01:15:13;;;;;;;24.80;16.73;;;16.20;99.90;;;;;;5057933;28;20021;-77
2021/06/08 01:18:22;;;;;;;26.67;17.88;;;16.10;99.90;;;;;;5054356;28;20009;-75
2021/06/08 01:21:08;;;;;;;23.00;14.88;;;16.10;99.90;;;;;;5047407;28;20012;-75
2021/06/08 01:23:44;;;;;;;21.65;16.48;;;16.20;99.90;;;;;;5039547;28;20053;-76
2021/06/08 01:29:35;;;;;;;25.88;16.70;;;16.30;99.90;;;;;;5043460;28;20101;-74
2021/06/08 01:32:21;;;;;;;27.00;15.90;;;16.30;99.90;;;;;;5037987;28;20014;-76
2021/06/08 01:34:49;;;;;;;23.70;16.08;;;16.20;99.90;;;;;;5045670;28;20018;-75
2021/06/08 01:37:17;;;;;;;22.13;16.55;;;16.20;99.90;;;;;;5048986;28;20038;-76
2021/06/08 01:39:49;;;;;;;20.67;15.50;;;16.30;99.90;;;;;;5051789;28;20018;-75
2021/06/08 01:42:17;;;;;;;;;;;16.30;99.90;;;;;;5047283;28;20022;-74
2021/06/08 01:44:47;;;;;;;23.08;14.88;;;16.10;99.90;;;;;;5044385;28;19972;-75
2021/06/08 01:47:14;;;;;;;21.83;15.18;;;16.00;99.90;;;;;;5045943;28;20028;-73
2021/06/08 01:49:41;;;;;;;23.90;16.00;;;16.10;99.90;;;;;;5033304;28;20105;-74
2021/06/08 01:52:32;;;;;;;19.60;15.77;;;16.10;99.90;;;;;;5020974;28;20026;-72
2021/06/08 01:55:11;;;;;;;23.85;15.45;;;16.10;99.90;;;;;;5020968;28;20010;-73
2021/06/08 01:57:44;;;;;;;23.00;14.95;;;16.10;99.90;;;;;;5028240;28;20057;-73
2021/06/08 02:00:38;;;;;;;18.75;15.23;;;16.10;99.90;;;;;;5025550;28;20022;-73
2021/06/08 02:03:12;;;;;;;23.13;16.80;;;16.20;99.90;;;;;;5012025;28;20050;-74
2021/06/08 02:06:15;;;;;;;23.70;16.33;;;16.20;99.90;;;;;;5017100;28;20033;-74
2021/06/08 02:08:52;;;;;;;22.80;15.32;;;16.10;99.90;;;;;;5021391;28;20631;-74
2021/06/08 02:11:38;;;;;;;21.67;14.38;;;16.10;99.90;;;;;;5022079;28;20392;-73
2021/06/08 02:14:05;;;;;;;19.75;13.88;;;16.10;99.90;;;;;;5030206;28;20107;-74
2021/06/08 02:16:34;;;;;;;19.45;14.93;;;16.10;99.90;;;;;;5033785;28;20057;-74
2021/06/08 02:18:59;;;;;;;19.95;14.82;;;16.10;99.90;;;;;;5033195;28;20033;-75
2021/06/08 02:21:31;;;;;;;19.13;13.88;;;16.00;99.90;;;;;;5029264;28;20384;-74
2021/06/08 02:23:58;;;;;;;22.40;14.95;;;16.10;99.90;;;;;;5024960;28;20056;-73
2021/06/08 02:26:25;;;;;;;20.35;14.88;;;16.10;99.90;;;;;;5030312;28;20031;-74
2021/06/08 02:28:52;;;;;;;22.42;15.82;;;16.10;99.90;;;;;;5013100;28;20032;-74
2021/06/08 02:31:18;;;;;;;23.67;14.50;;;16.10;99.90;;;;;;5028275;28;20028;-74
2021/06/08 02:33:49;;;;;;;19.40;14.30;;;16.10;99.90;;;;;;5030121;28;20331;-74
2021/06/08 02:36:16;;;;;;;21.17;15.30;;;16.10;99.90;;;;;;5032711;28;20398;-74
2021/06/08 02:38:42;;;;;;;17.25;13.82;;;16.00;99.90;;;;;;5017708;28;20083;-72
2021/06/08 02:41:08;;;;;;;20.52;14.88;;;16.00;99.90;;;;;;5035171;28;20033;-75
2021/06/08 02:43:37;;;;;;;18.88;13.55;;;16.00;99.90;;;;;;5017394;28;20029;-75
2021/06/08 02:46:04;;;;;;;24.38;14.70;;;16.00;99.90;;;;;;5032929;28;20014;-71
2021/06/08 02:48:31;;;;;;;20.67;14.40;;;16.00;99.90;;;;;;5030896;28;20088;-72
2021/06/08 02:50:57;;;;;;;16.55;13.13;;;16.10;99.90;;;;;;5020483;28;20041;-74
2021/06/08 02:53:24;;;;;;;16.55;13.07;;;16.10;99.90;;;;;;5036999;28;20093;-73
2021/06/08 02:55:52;;;;;;;20.63;13.85;;;16.10;99.90;;;;;;5014322;28;20056;-73
2021/06/08 02:58:18;;;;;;;17.15;12.68;;;16.00;99.90;;;;;;5030360;28;20026;-73
2021/06/08 03:00:45;;;;;;;18.98;13.20;;;16.00;99.90;;;;;;5029239;28;20546;-73
2021/06/08 03:03:15;;;;;;;17.30;13.27;;;16.00;99.90;;;;;;5031549;28;20498;-73
2021/06/08 03:05:48;;;;;;;17.80;12.93;;;15.90;99.90;;;;;;5032446;28;20650;-74
2021/06/08 03:08:17;;;;;;;;;;;15.90;99.90;;;;;;5029983;28;20152;-74
2021/06/08 03:10:47;;;;;;;18.02;11.88;;;16.00;99.90;;;;;;5031005;28;19905;-73
2021/06/08 03:13:16;;;;;;;15.10;11.30;;;15.90;99.90;;;;;;5027108;28;20022;-73
2021/06/08 03:15:50;;;;;;;14.05;11.70;;;15.90;99.90;;;;;;5029743;28;20318;-76
2021/06/08 03:18:21;;;;;;;15.13;11.40;;;15.90;99.90;;;;;;5028251;28;20041;-74
2021/06/08 03:20:56;;;;;;;16.48;12.70;;;16.00;99.90;;;;;;5031401;28;20048;-73
2021/06/08 03:23:26;;;;;;;21.50;13.52;;;16.00;99.90;;;;;;5031682;28;20017;-75
2021/06/08 03:25:55;;;;;;;21.90;12.82;;;16.00;99.90;;;;;;5031387;28;20022;-72
2021/06/08 03:28:23;;;;;;;17.92;12.38;;;16.00;99.90;;;;;;5025311;28;20089;-71
2021/06/08 03:30:50;;;;;;;15.48;12.20;;;15.90;99.90;;;;;;5033338;28;20030;-72
2021/06/08 03:33:18;;;;;;;15.60;11.98;;;15.80;99.90;;;;;;5036037;28;20099;-73
2021/06/08 03:35:45;;;;;;;21.75;12.52;;;15.90;99.90;;;;;;5028123;28;20387;-72
2021/06/08 03:38:11;;;;;;;13.70;11.45;;;15.90;99.90;;;;;;5014066;28;20034;-73
2021/06/08 03:40:38;;;;;;;17.88;11.98;;;15.80;99.90;;;;;;5026319;28;20648;-74
2021/06/08 03:43:04;;;;;;;14.85;11.32;;;15.90;99.90;;;;;;5026658;28;20124;-73
2021/06/08 03:45:30;;;;;;;16.85;11.77;;;16.00;99.90;;;;;;5046828;28;20017;-73
2021/06/08 03:47:58;;;;;;;14.82;10.55;;;16.10;99.90;;;;;;5044637;28;20041;-72
2021/06/08 03:50:25;;;;;;;13.73;11.15;;;16.00;99.90;;;;;;5035528;28;20025;-75
2021/06/08 03:52:50;;;;;;;21.45;12.27;;;16.00;99.90;;;;;;5012187;28;20514;-71
2021/06/08 03:55:21;;;;;;;14.27;11.10;;;16.00;99.90;;;;;;5025907;28;20113;-74
2021/06/08 03:57:52;;;;;;;14.10;12.00;;;15.90;99.90;;;;;;5030987;28;20068;-75
2021/06/08 04:00:19;;;;;;;17.63;11.10;;;16.00;99.90;;;;;;5026471;28;20025;-73
2021/06/08 04:02:45;;;;;;;18.77;11.93;;;16.10;99.90;;;;;;5034873;28;20515;-74
2021/06/08 04:05:13;;;;;;;18.38;11.50;;;16.10;99.90;;;;;;5029499;28;20034;-74
2021/06/08 04:07:40;;;;;;;15.13;10.93;;;16.00;99.90;;;;;;5027479;28;20033;-74
2021/06/08 04:10:07;;;;;;;17.05;12.13;;;16.00;99.90;;;;;;5029685;28;20044;-74
2021/06/08 04:12:34;;;;;;;15.75;11.52;;;16.00;99.90;;;;;;5036685;28;20037;-74
2021/06/08 04:15:00;;;;;;;11.95;10.60;;;15.90;99.90;;;;;;5034819;28;20512;-73
2021/06/08 04:17:26;;;;;;;14.50;10.95;;;15.80;99.90;;;;;;5030800;28;20041;-75
2021/06/08 04:19:52;;;;;;;15.85;11.48;;;15.80;99.90;;;;;;5030571;28;20064;-75
2021/06/08 04:22:35;;;;;;;16.33;11.50;;;15.80;99.90;;;;;;4996653;28;20049;-73
2021/06/08 04:25:03;;;;;;;15.27;11.70;;;15.80;99.90;;;;;;5023167;28;20032;-74
2021/06/08 04:27:29;;;;;;;15.02;11.90;;;15.80;99.90;;;;;;5031217;28;20076;-72
2021/06/08 04:29:56;;;;;;;16.10;11.35;;;15.80;99.90;;;;;;5023642;28;20387;-75
2021/06/08 04:32:23;;;;;;;13.90;11.20;;;15.80;99.90;;;;;;5019339;28;20076;-74
2021/06/08 04:34:55;;;;;;;13.88;10.70;;;15.80;99.90;;;;;;5021886;28;20394;-73
2021/06/08 04:37:21;;;;;;;18.80;10.77;;;15.90;99.90;;;;;;5018332;28;20069;-75
2021/06/08 04:39:51;;;;;;;16.20;10.25;;;16.00;99.90;;;;;;5007371;28;20475;-73
2021/06/08 04:42:19;;;;;;;12.40;10.00;;;16.10;99.90;;;;;;5020658;28;20022;-73
2021/06/08 04:44:49;;;;;;;16.55;11.27;;;16.00;99.90;;;;;;5027574;28;20022;-73
2021/06/08 04:47:22;;;;;;;17.58;11.35;;;16.10;99.90;;;;;;5028159;28;20022;-75
2021/06/08 04:49:49;;;;;;;16.90;11.05;;;16.20;99.90;;;;;;5029665;28;20026;-75
2021/06/08 04:52:16;;;;;;;13.70;10.57;;;16.20;99.90;;;;;;5023502;28;20029;-74
2021/06/08 04:54:43;;;;;;;15.52;10.40;;;16.20;99.90;;;;;;5030009;28;20026;-73
2021/06/08 04:57:15;;;;;;;17.00;10.65;;;16.30;99.90;;;;;;5027793;28;20262;-75
2021/06/08 04:59:49;;;;;;;14.85;10.55;;;16.30;99.90;;;;;;5036964;28;20313;-74
2021/06/08 05:02:35;;;;;;;14.93;10.73;;;16.30;99.90;;;;;;5022675;28;20046;-74
2021/06/08 05:05:22;;;;;;;14.82;10.50;;;16.40;99.90;;;;;;5034678;28;20052;-74
2021/06/08 05:08:13;;;;;;;14.98;10.30;;;16.40;99.90;;;;;;5018709;28;20052;-75
2021/06/08 05:11:01;;;;;;;15.23;11.60;;;16.50;99.90;;;;;;5032546;28;20096;-77
2021/06/08 05:13:36;;;;;;;18.23;12.05;;;16.60;99.90;;;;;;5033993;28;20480;-77
2021/06/08 05:16:04;;;;;;;17.85;12.23;;;16.60;99.90;;;;;;5028547;28;20026;-75
2021/06/08 05:18:31;;;;;;;16.77;12.30;;;16.50;99.90;;;;;;5032996;28;20071;-75
2021/06/08 05:20:58;;;;;;;17.98;12.02;;;16.60;99.90;;;;;;5025430;28;20030;-74
2021/06/08 05:23:24;;;;;;;21.98;11.80;;;16.70;99.90;;;;;;5031011;28;20025;-74
2021/06/08 05:25:52;;;;;;;19.45;13.88;;;16.70;99.90;;;;;;5025535;28;20014;-74
2021/06/08 05:28:19;;;;;;;17.42;12.15;;;16.80;99.90;;;;;;5024471;28;20515;-75
2021/06/08 05:30:47;;;;;;;19.52;12.10;;;16.80;99.90;;;;;;5035952;28;20212;-74
2021/06/08 05:33:20;;;;;;;17.40;12.15;;;17.00;99.90;;;;;;5047483;28;20017;-76
2021/06/08 05:36:02;;;;;;;21.50;12.48;;;17.20;99.90;;;;;;5046514;28;20018;-76
2021/06/08 05:38:38;;;;;;;18.25;11.45;;;17.30;99.90;;;;;;5050353;28;20016;-76
2021/06/08 05:41:28;;;;;;;16.10;11.32;;;17.30;99.90;;;;;;5057218;28;20032;-77
2021/06/08 05:44:14;;;;;;;16.27;10.57;;;17.20;99.90;;;;;;5052644;28;20021;-77
2021/06/08 05:46:41;;;;;;;16.52;11.32;;;17.20;99.90;;;;;;5037024;28;20040;-74
2021/06/08 05:50:02;;;;;;;15.80;11.63;;;17.30;99.90;;;;;;5045271;28;20022;-77
2021/06/08 05:52:42;;;;;;;16.52;10.75;;;17.30;99.90;;;;;;5039539;28;20048;-74
2021/06/08 05:55:16;;;;;;;16.25;9.90;;;17.40;99.90;;;;;;5039162;28;20063;-75
2021/06/08 05:57:45;;;;;;;16.92;10.35;;;17.40;99.90;;;;;;5032335;28;20459;-75
2021/06/08 06:00:12;;;;;;;15.82;10.43;;;17.50;99.90;;;;;;5023684;28;20029;-73
2021/06/08 06:02:42;;;;;;;16.45;9.15;;;17.70;99.90;;;;;;5025954;28;20076;-74
2021/06/08 06:05:08;;;;;;;12.45;9.18;;;17.80;99.90;;;;;;5006491;28;20165;-74
2021/06/08 06:07:35;;;;;;;11.57;8.65;;;18.00;99.90;;;;;;5029722;28;20028;-73
2021/06/08 06:10:01;;;;;;;11.80;8.32;;;18.30;99.90;;;;;;5030905;28;20482;-73
2021/06/08 06:12:27;;;;;;;10.88;8.00;;;18.70;99.90;;;;;;5028485;28;20052;-73
2021/06/08 06:15:03;;;;;;;15.85;8.98;;;19.00;99.90;;;;;;5016893;28;20510;-74
2021/06/08 06:17:36;;;;;;;12.65;8.88;;;19.10;99.90;;;;;;5029484;28;20068;-74
2021/06/08 06:20:05;;;;;;;16.58;8.98;;;19.10;99.90;;;;;;5025920;28;20097;-75
2021/06/08 06:22:33;;;;;;;10.68;8.70;;;19.30;99.90;;;;;;5033532;28;20052;-74
2021/06/08 06:24:59;;;;;;;12.52;9.10;;;19.20;99.90;;;;;;5031519;28;20029;-74
2021/06/08 06:27:27;;;;;;;18.40;8.38;;;19.40;99.90;;;;;;5030073;28;20113;-75
2021/06/08 06:29:54;;;;;;;14.10;8.38;;;19.50;99.90;;;;;;5011604;28;20026;-74
2021/06/08 06:32:21;;;;;;;15.02;8.27;;;19.50;99.90;;;;;;5024834;28;20022;-76
2021/06/08 06:34:46;;;;;;;16.65;8.25;;;19.90;99.90;;;;;;5003593;28;20602;-73
2021/06/08 06:37:13;;;;;;;8.82;7.40;;;20.00;99.90;;;;;;5025296;28;20053;-76
2021/06/08 06:39:42;;;;;;;14.88;7.88;;;19.90;99.90;;;;;;5028190;28;20023;-76
2021/06/08 06:42:12;;;;;;;11.75;7.32;;;20.20;99.90;;;;;;5013900;28;20396;-76
2021/06/08 06:44:40;;;;;;;9.07;6.63;;;20.30;99.90;;;;;;5029591;28;20147;-73
2021/06/08 06:47:06;;;;;;;8.35;5.93;;;20.30;99.90;;;;;;5030687;28;20013;-75
2021/06/08 06:49:32;;;;;;;8.45;6.50;;;20.60;99.90;;;;;;5034880;28;20021;-76
2021/06/08 06:51:59;;;;;;;8.38;6.70;;;20.50;99.90;;;;;;5050797;28;20036;-75
2021/06/08 06:54:25;;;;;;;9.95;6.82;;;20.50;99.90;;;;;;5047887;28;20056;-75
2021/06/08 06:56:51;;;;;;;10.95;6.97;;;19.90;99.90;;;;;;5032943;28;20025;-74
2021/06/08 06:59:17;;;;;;;9.13;7.40;;;19.80;99.90;;;;;;5030991;28;20057;-73
2021/06/08 07:01:45;;;;;;;11.60;6.60;;;20.00;99.90;;;;;;5033208;28;20037;-75
2021/06/08 07:04:11;;;;;;;9.45;6.28;;;20.30;99.90;;;;;;5028624;28;20032;-74
2021/06/08 07:06:40;;;;;;;6.75;5.15;;;20.40;99.90;;;;;;5025313;28;20048;-74
2021/06/08 07:09:06;;;;;;;10.13;6.50;;;20.70;99.90;;;;;;5036893;28;20010;-74
2021/06/08 07:11:39;;;;;;;6.80;5.45;;;21.10;99.90;;;;;;5048638;28;20032;-74
2021/06/08 07:14:06;;;;;;;7.90;5.78;;;21.10;99.90;;;;;;5043197;28;20038;-74
2021/06/08 07:16:38;;;;;;;7.18;6.22;;;21.30;99.90;;;;;;5055203;28;20048;-75
2021/06/08 07:19:03;;;;;;;12.88;7.82;;;21.00;99.90;;;;;;5035569;28;20049;-76
2021/06/08 07:21:29;;;;;;;12.05;7.18;;;20.60;99.90;;;;;;5049973;28;20029;-75
2021/06/08 07:23:55;;;;;;;13.35;6.60;;;20.60;99.90;;;;;;5058275;28;20041;-73
2021/06/08 07:26:22;;;;;;;9.07;6.68;;;20.30;99.90;;;;;;5051053;28;20034;-72
2021/06/08 07:28:49;;;;;;;12.50;7.75;;;20.00;99.90;;;;;;5028816;28;20048;-72
2021/06/08 07:32:03;;;;;;;8.73;6.68;;;20.30;99.90;;;;;;5042434;28;20057;-74
2021/06/08 07:34:47;;;;;;;10.68;7.00;;;20.40;99.90;;;;;;4991372;28;20045;-76
2021/06/08 07:37:17;;;;;;;14.07;7.97;;;20.40;99.90;;;;;;5030990;28;20073;-73
2021/06/08 07:39:49;;;;;;;9.77;6.93;;;20.30;99.90;;;;;;5033046;28;20025;-76
2021/06/08 07:42:35;;;;;;;9.65;7.40;;;20.30;99.90;;;;;;5032998;28;20033;-72
2021/06/08 07:45:02;;;;;;;13.00;7.28;;;20.30;99.90;;;;;;5018474;28;20049;-74
2021/06/08 07:47:32;;;;;;;14.43;6.78;;;20.40;99.90;;;;;;5013343;28;20503;-74
2021/06/08 07:50:00;;;;;;;9.82;6.30;;;20.60;99.90;;;;;;5032229;28;20660;-75
2021/06/08 07:52:28;;;;;;;9.35;6.80;;;20.60;99.90;;;;;;5035286;28;20022;-76
2021/06/08 07:54:55;;;;;;;8.73;6.30;;;20.60;99.90;;;;;;5011054;28;20018;-73
2021/06/08 07:57:23;;;;;;;9.57;6.57;;;20.30;99.90;;;;;;5032069;28;20021;-74
2021/06/08 07:59:50;;;;;;;11.55;7.28;;;20.40;99.90;;;;;;5029522;28;20032;-73
2021/06/08 08:02:20;;;;;;;10.63;6.93;;;20.20;99.90;;;;;;5030767;28;20096;-75
2021/06/08 08:04:50;;;;;;;8.88;7.55;;;20.30;99.90;;;;;;5032033;28;20025;-73
2021/06/08 08:07:23;;;;;;;10.50;6.40;;;20.50;99.90;;;;;;5029630;28;20025;-74
2021/06/08 08:09:55;;;;;;;9.30;7.25;;;20.20;99.90;;;;;;5028502;28;20036;-75
2021/06/08 08:12:22;;;;;;;12.98;6.75;;;20.10;99.90;;;;;;5029700;28;20037;-76
2021/06/08 08:14:52;;;;;;;8.55;6.05;;;20.10;99.90;;;;;;5012353;28;20109;-75
2021/06/08 08:17:22;;;;;;;8.50;6.63;;;20.20;99.90;;;;;;5028179;28;20100;-75
2021/06/08 08:19:48;;;;;;;11.05;6.63;;;20.40;99.90;;;;;;5032895;28;20033;-74
2021/06/08 08:22:16;;;;;;;9.10;7.10;;;20.60;99.90;;;;;;5033087;28;20049;-74
2021/06/08 08:24:44;;;;;;;9.25;6.38;;;20.50;99.90;;;;;;5034195;28;20129;-73
2021/06/08 08:27:10;;;;;;;7.30;6.30;;;20.60;99.90;;;;;;5030115;28;20088;-74
2021/06/08 08:29:37;;;;;;;12.05;6.28;;;20.80;99.90;;;;;;5025911;28;20018;-72
2021/06/08 08:32:03;;;;;;;6.32;4.47;;;20.90;99.90;;;;;;5022441;28;20093;-72
2021/06/08 08:34:29;;;;;;;7.55;4.18;;;21.30;99.90;;;;;;5027849;28;20033;-72
2021/06/08 08:36:56;;;;;;;5.93;4.13;;;21.50;99.90;;;;;;5033775;28;20128;-75
2021/06/08 08:39:22;;;;;;;5.35;3.60;;;21.70;99.90;;;;;;5010822;28;20030;-74
2021/06/08 08:41:52;;;;;;;11.52;4.03;;;21.20;99.90;;;;;;5025369;28;20025;-73
2021/06/08 08:44:18;;;;;;;4.72;4.10;;;21.30;99.90;;;;;;5027990;28;20033;-74
2021/06/08 08:46:45;;;;;;;8.07;3.92;;;21.50;99.90;;;;;;5022803;28;20017;-75
2021/06/08 08:49:10;;;;;;;4.82;4.03;;;21.30;99.90;;;;;;5025077;28;20029;-73
2021/06/08 08:51:41;;;;;;;4.53;4.05;;;21.20;99.90;;;;;;5028016;28;20030;-73
2021/06/08 08:54:10;;;;;;;9.75;4.22;;;21.60;99.90;;;;;;5013381;28;20022;-74
2021/06/08 08:56:38;;;;;;;9.23;5.60;;;21.80;99.90;;;;;;5030798;28;20024;-74
2021/06/08 08:59:10;;;;;;;7.55;4.20;;;21.60;99.90;;;;;;5032188;28;20033;-74
2021/06/08 09:01:37;;;;;;;9.70;4.93;;;21.70;99.90;;;;;;5028584;28;20026;-74
2021/06/08 09:04:05;;;;;;;6.07;4.07;;;22.00;99.90;;;;;;5035472;28;20026;-73
2021/06/08 09:06:31;;;;;;;8.23;4.50;;;22.30;99.90;;;;;;5028842;28;20100;-73
2021/06/08 09:08:57;;;;;;;5.95;3.75;;;22.40;99.90;;;;;;5031036;28;20409;-73
2021/06/08 09:11:23;;;;;;;5.72;4.38;;;22.40;99.90;;;;;;5030571;28;20020;-74
2021/06/08 09:13:49;;;;;;;9.50;4.85;;;22.50;99.90;;;;;;5031821;28;20204;-73
2021/06/08 09:16:15;;;;;;;4.75;3.47;;;22.00;99.90;;;;;;5028109;28;20037;-72
2021/06/08 09:18:42;;;;;;;4.70;3.75;;;22.10;99.90;;;;;;5027484;28;20068;-72
2021/06/08 09:21:15;;;;;;;9.13;4.82;;;22.30;98.70;;;;;;5008269;28;20372;-74
2021/06/08 09:23:41;;;;;;;4.03;3.65;;;22.30;98.10;;;;;;5025270;28;20028;-72
2021/06/08 09:26:07;;;;;;;5.80;4.63;;;22.40;99.40;;;;;;5029064;28;20104;-75
2021/06/08 09:28:38;;;;;;;5.78;4.43;;;22.40;98.70;;;;;;5019243;28;20529;-73
2021/06/08 09:31:20;;;;;;;5.65;4.50;;;22.00;99.50;;;;;;5026209;28;20029;-72
2021/06/08 09:33:50;;;;;;;8.05;3.65;;;22.10;98.70;;;;;;5026535;28;20025;-73
2021/06/08 09:36:24;;;;;;;6.50;3.95;;;22.00;98.80;;;;;;5017192;28;20025;-72
2021/06/08 09:38:55;;;;;;;5.32;4.25;;;22.20;99.40;;;;;;5016234;28;20060;-74
2021/06/08 09:41:41;;;;;;;9.43;3.87;;;22.40;97.70;;;;;;5022388;28;20036;-74
2021/06/08 09:44:19;;;;;;;9.35;3.88;;;22.70;98.50;;;;;;5028573;28;20329;-72
2021/06/08 09:46:48;;;;;;;5.80;3.42;;;22.80;97.00;;;;;;5030970;28;20021;-74
2021/06/08 09:49:17;;;;;;;5.30;3.63;;;22.70;97.40;;;;;;5025468;28;20041;-73
2021/06/08 09:51:56;;;;;;;11.50;3.75;;;22.80;95.50;;;;;;5031964;28;20017;-72
2021/06/08 09:54:33;;;;;;;5.70;2.75;;;22.90;92.50;;;;;;5031149;28;20030;-74
2021/06/08 09:57:19;;;;;;;5.30;2.70;;;22.80;93.50;;;;;;5025813;28;20119;-72
2021/06/08 09:59:47;;;;;;;4.05;2.10;;;22.70;93.60;;;;;;5030917;28;20036;-73
2021/06/08 10:02:29;;;;;;;2.75;2.42;;;22.90;94.10;;;;;;5031399;28;20399;-72
2021/06/08 10:05:27;;;;;;;2.88;2.13;;;22.80;93.60;;;;;;5019931;28;20404;-72
2021/06/08 10:08:04;;;;;;;5.97;2.55;;;23.30;91.90;;;;;;5023657;28;20028;-73
2021/06/08 10:10:45;;;;;;;2.97;2.13;;;23.40;91.90;;;;;;5030625;28;20018;-74
2021/06/08 10:13:14;;;;;;;5.78;2.53;;;23.30;88.60;;;;;;5026153;28;20040;-71
2021/06/08 10:15:54;;;;;;;5.55;2.97;;;23.30;87.40;;;;;;5028117;28;20028;-74
2021/06/08 10:18:43;;;;;;;3.22;2.60;;;23.10;85.10;;;;;;5031486;28;20022;-74
2021/06/08 10:21:09;;;;;;;4.03;2.55;;;22.90;84.30;;;;;;5030313;28;20017;-77
2021/06/08 10:23:34;;;;;;;2.97;1.25;;;22.50;85.90;;;;;;5026697;28;20021;-73
2021/06/08 10:26:12;;;;;;;1.70;1.55;;;22.60;86.80;;;;;;5029882;28;20523;-72
2021/06/08 10:28:38;;;;;;;2.40;2.20;;;23.00;86.30;;;;;;5028948;28;20021;-73
2021/06/08 10:31:06;;;;;;;3.05;2.15;;;23.20;85.50;;;;;;5030494;28;20014;-72
2021/06/08 10:33:32;;;;;;;4.70;3.03;;;23.40;82.40;;;;;;5023570;28;20045;-71
2021/06/08 10:35:58;;;;;;;3.08;1.67;;;23.30;80.70;;;;;;5026938;28;20009;-72
2021/06/08 10:38:25;;;;;;;3.20;2.22;;;23.40;84.90;;;;;;5028791;28;20021;-73
2021/06/08 10:40:54;;;;;;;7.00;1.92;;;23.50;86.30;;;;;;5019064;28;20022;-73
2021/06/08 10:43:27;;;;;;;5.63;3.05;;;23.90;85.90;;;;;;5025040;28;20109;-74
2021/06/08 10:45:56;;;;;;;2.30;2.10;;;24.00;81.10;;;;;;5032867;28;20112;-74
2021/06/08 10:48:42;;;;;;;3.90;2.45;;;24.00;79.80;;;;;;5011097;28;20022;-75
2021/06/08 10:51:13;;;;;;;3.17;2.30;;;24.00;81.00;;;;;;5030258;28;20424;-74
2021/06/08 10:53:47;;;;;;;2.20;1.75;;;23.70;78.90;;;;;;5014134;28;20106;-75
2021/06/08 10:56:31;;;;;;;4.43;2.38;;;23.40;80.00;;;;;;5033702;28;20032;-73
2021/06/08 10:59:05;;;;;;;2.30;2.10;;;23.30;81.20;;;;;;5031741;28;20026;-73
2021/06/08 11:01:37;;;;;;;2.83;1.67;;;23.30;82.60;;;;;;5047266;28;20085;-74
2021/06/08 11:04:05;;;;;;;5.70;2.50;;;23.50;80.60;;;;;;5034702;28;20084;-74
2021/06/08 11:06:52;;;;;;;2.35;2.13;;;23.20;79.40;;;;;;5041847;28;20022;-73
2021/06/08 11:09:25;;;;;;;5.90;2.65;;;23.20;80.40;;;;;;5007059;28;20018;-75
2021/06/08 11:12:08;;;;;;;4.75;2.90;;;23.30;79.60;;;;;;5035163;28;20416;-74
2021/06/08 11:17:26;;;;;;;6.30;2.88;;;23.60;78.50;;;;;;5035043;28;20049;-72
2021/06/08 11:19:58;;;;;;;6.53;2.63;;;23.90;77.90;;;;;;5033415;28;20033;-72
2021/06/08 11:22:46;;;;;;;6.78;2.70;;;23.90;75.30;;;;;;5033607;28;20487;-74
2021/06/08 11:25:37;;;;;;;3.42;2.92;;;24.00;76.20;;;;;;5041419;28;20040;-72
2021/06/08 11:28:38;;;;;;;6.25;2.30;;;24.20;76.50;;;;;;5043394;28;20055;-73
2021/06/08 11:31:06;;;;;;;6.00;2.33;;;24.40;75.10;;;;;;5040656;28;20113;-73
2021/06/08 11:33:36;;;;;;;6.00;2.38;;;24.10;73.50;;;;;;5055448;28;20028;-75
2021/06/08 11:36:22;;;;;;;2.45;2.05;;;24.30;74.10;;;;;;5057549;28;20085;-73
2021/06/08 11:39:19;;;;;;;18.58;3.13;;;24.00;75.00;;;;;;5050977;28;20029;-75
2021/06/08 11:42:02;;;;;;;3.10;2.80;;;24.30;72.00;;;;;;5057227;28;20002;-72
2021/06/08 11:44:30;;;;;;;3.05;2.67;;;23.90;71.60;;;;;;5026536;28;20231;-72
2021/06/08 11:47:01;;;;;;;2.50;2.28;;;24.10;72.70;;;;;;5048822;28;20009;-73
2021/06/08 11:49:32;;;;;;;3.23;2.30;;;24.40;72.90;;;;;;5034919;28;20022;-73
2021/06/08 11:52:12;;;;;;;4.13;3.05;;;24.40;70.20;;;;;;5048203;28;20253;-74
2021/06/08 11:54:41;;;;;;;6.25;2.60;;;24.10;70.20;;;;;;5039024;28;20463;-74
2021/06/08 11:57:11;;;;;;;1.77;1.67;;;24.10;73.10;;;;;;5045962;28;20021;-72
2021/06/08 11:59:46;;;;;;;3.33;2.00;;;24.20;72.20;;;;;;5025705;28;20049;-75
2021/06/08 12:02:36;;;;;;;3.00;1.83;;;24.60;73.50;;;;;;5027593;28;20051;-72
2021/06/08 12:05:08;;;;;;;2.50;2.13;;;24.60;74.30;;;;;;5011000;28;20040;-73
2021/06/08 12:08:01;;;;;;;2.58;2.35;;;24.70;70.80;;;;;;5017528;28;20132;-75
2021/06/08 12:10:38;;;;;;;8.85;2.92;;;24.90;70.50;;;;;;5032254;28;20100;-73
2021/06/08 12:13:04;;;;;;;5.18;2.17;;;24.80;70.90;;;;;;5035392;28;20075;-75
2021/06/08 12:15:34;;;;;;;4.22;2.40;;;25.40;72.30;;;;;;5014020;28;20120;-73
2021/06/08 12:18:16;;;;;;;4.13;1.83;;;25.80;69.60;;;;;;5035181;28;20030;-72
2021/06/08 12:20:44;;;;;;;5.22;2.15;;;26.10;68.80;;;;;;5033265;28;20479;-74
2021/06/08 12:23:10;;;;;;;2.20;2.00;;;26.20;66.30;;;;;;5034832;28;20545;-74
2021/06/08 12:25:37;;;;;;;4.85;2.75;;;26.10;65.30;;;;;;5032055;28;20053;-74
2021/06/08 12:28:09;;;;;;;5.05;2.53;;;26.10;65.50;;;;;;5010305;28;20032;-73
2021/06/08 12:30:41;;;;;;;3.55;2.25;;;25.90;66.00;;;;;;5025187;28;20017;-74
2021/06/08 12:33:07;;;;;;;9.15;1.90;;;25.80;68.50;;;;;;5024005;28;20022;-73
2021/06/08 12:35:40;;;;;;;2.67;1.90;;;25.90;68.70;;;;;;5032288;28;20033;-73
2021/06/08 12:38:15;;;;;;;2.40;2.20;;;26.40;70.50;;;;;;5030591;28;20013;-74
2021/06/08 12:40:43;;;;;;;5.75;2.40;;;26.50;67.20;;;;;;5025678;28;20036;-73
2021/06/08 12:43:16;;;;;;;3.33;2.40;;;26.00;66.10;;;;;;5027297;28;20042;-74
2021/06/08 12:46:00;;;;;;;4.63;2.85;;;26.10;65.50;;;;;;5034813;28;20014;-73
2021/06/08 12:48:26;;;;;;;2.97;2.60;;;25.60;65.00;;;;;;5018980;28;20041;-73
2021/06/08 12:50:52;;;;;;;18.98;2.75;;;25.50;67.20;;;;;;5034466;28;20029;-75
2021/06/08 12:53:30;;;;;;;6.63;2.85;;;25.60;65.20;;;;;;5016842;28;20120;-74
2021/06/08 12:55:56;;;;;;;4.75;3.35;;;25.90;66.20;;;;;;5052827;28;20006;-73
2021/06/08 12:58:23;;;;;;;5.78;2.35;;;25.80;63.80;;;;;;5054855;28;20066;-76
2021/06/08 13:00:51;;;;;;;3.58;2.30;;;25.70;65.50;;;;;;5054627;28;20022;-74
2021/06/08 13:03:20;;;;;;;3.53;2.05;;;26.00;66.50;;;;;;5055266;28;20021;-76
2021/06/08 13:05:46;;;;;;;3.80;2.40;;;25.90;65.40;;;;;;5050755;28;20034;-75
2021/06/08 13:08:16;;;;;;;8.05;2.20;;;26.40;65.30;;;;;;5015262;28;20033;-75